createdAt,value
2023-05-05T00:06:07.373Z,11.05277095526756
2023-05-05T00:18:11.654Z,10.986385608277592
2023-05-05T00:24:32.705Z,11.003824597617056
2023-05-05T00:33:51.291Z,10.903305941680602
2023-05-05T00:55:40.289Z,10.883480743102005
2023-05-05T01:02:02.742Z,10.825781249999999
2023-05-05T01:08:25.268Z,10.73097891408863
2023-05-05T01:14:47.515Z,10.705048076923077
2023-05-05T01:21:08.191Z,10.613306072324415
2023-05-05T01:27:29.006Z,10.496835153637123
2023-05-05T01:33:49.137Z,10.470913461538462
2023-05-05T01:51:14.779Z,10.462999712583612
2023-05-05T02:04:25.783Z,10.428146556229098
2023-05-05T02:10:48.815Z,10.369433267140469
2023-05-05T02:23:12.069Z,10.154407269021739
2023-05-05T02:36:30.613Z,10.03586368624582
2023-05-05T02:42:51.127Z,10.021130983486621
2023-05-05T02:49:12.081Z,9.861665186036788
2023-05-05T02:57:26.019Z,9.847102973453175
2023-05-05T03:03:49.317Z,9.817758413461538
2023-05-05T03:10:11.664Z,9.751634354096991
2023-05-05T03:16:31.645Z,9.720195573787626
2023-05-05T03:22:52.517Z,9.751123536789297
2023-05-05T03:29:14.230Z,9.693847329640468
2023-05-05T03:35:33.642Z,9.564434181647156
2023-05-05T03:41:54.767Z,9.475198578595318
2023-05-05T03:52:29.454Z,9.387545072115387
2023-05-05T03:58:51.970Z,9.37666570861204
2023-05-05T04:05:13.185Z,9.439818927675585
2023-05-05T04:11:43.665Z,9.43933881166388
2023-05-05T04:18:06.167Z,9.385568431229096
2023-05-05T04:24:29.466Z,9.345833768812708
2023-05-05T04:30:52.154Z,9.423749738712374
2023-05-05T04:37:15.424Z,9.390736700459867
2023-05-05T04:43:37.909Z,9.680336799749163
2023-05-05T04:53:11.376Z,9.742930863294315
2023-05-05T04:59:37.146Z,9.892606213419732
2023-05-05T05:06:10.093Z,10.038125130643813
2023-05-05T05:17:34.559Z,10.094620087792643
2023-05-05T05:24:21.144Z,10.03203320965719
2023-05-05T05:30:42.936Z,10.008600282190637
2023-05-05T05:37:04.538Z,9.967324022784279
2023-05-05T05:43:26.149Z,9.893432535535116
2023-05-05T05:49:47.650Z,10.309943300585285
2023-05-05T05:56:09.789Z,11.194174592391304
2023-05-05T06:02:31.766Z,11.937209970735786
2023-05-05T06:10:26.611Z,11.748224550585284
2023-05-05T06:18:15.392Z,11.623644570443144
2023-05-05T06:24:37.595Z,11.684387411162207
2023-05-05T06:31:46.401Z,11.569656014841136
2023-05-05T06:39:19.942Z,11.684197324414715
2023-05-05T06:45:43.875Z,11.688920751463211
2023-05-05T06:52:06.018Z,11.73420908235786
2023-05-05T06:58:28.579Z,11.797139553720736
2023-05-05T07:04:59.098Z,12.072126489339466
2023-05-05T07:11:21.297Z,11.891936663879598
2023-05-05T07:17:43.733Z,11.924214830685619
2023-05-05T07:24:05.876Z,11.952757890886287
2023-05-05T07:30:28.220Z,11.821818169941471
2023-05-05T07:36:49.891Z,11.688335467182274
2023-05-05T07:49:02.973Z,11.471481108904683
2023-05-05T07:55:24.433Z,11.402403846153845
2023-05-05T08:01:46.041Z,11.239112144648828
2023-05-05T08:08:07.376Z,11.296402069397992
2023-05-05T08:14:28.382Z,11.263735890468226
2023-05-05T08:20:49.696Z,11.60114574623746
2023-05-05T08:27:11.741Z,12.550825015677257
2023-05-05T08:33:33.019Z,12.995675036580266
2023-05-05T08:39:53.754Z,13.135622648411372
2023-05-05T08:53:47.255Z,12.910418190844482
2023-05-05T09:00:09.442Z,12.957517898202342
2023-05-05T09:07:22.372Z,12.563101614757525
2023-05-05T09:14:50.487Z,12.342020929138796
2023-05-05T09:21:12.291Z,12.362317098662206
2023-05-05T09:27:33.484Z,12.479969037416389
2023-05-05T09:33:58.532Z,12.575378213837793
2023-05-05T09:42:34.521Z,12.998110237249163
2023-05-05T09:48:57.102Z,13.426836852006687
2023-05-05T09:55:19.993Z,13.940811167433113
2023-05-05T10:01:42.678Z,13.797285874790969
2023-05-05T10:08:05.620Z,14.141983695652174
2023-05-05T10:21:44.504Z,14.971602607650503
2023-05-05T10:32:40.654Z,14.961185070025083
2023-05-05T10:39:12.776Z,15.43580881584448
2023-05-05T10:45:35.705Z,15.711685435827759
2023-05-05T10:51:58.182Z,15.706681777801004
2023-05-05T10:58:21.068Z,16.549162573160537
2023-05-05T11:04:43.982Z,16.809239130434783
2023-05-05T11:11:06.803Z,16.671990619774245
2023-05-05T11:26:14.666Z,17.019919262123747
2023-05-05T11:35:15.830Z,17.418985158862878
2023-05-05T11:41:38.691Z,17.86516252090301
2023-05-05T11:51:28.512Z,18.180628788670568
2023-05-05T11:57:52.555Z,18.201450799540137
2023-05-05T12:04:15.468Z,18.02784150292642
2023-05-05T12:28:34.344Z,18.589827419523413
2023-05-05T12:34:57.155Z,18.908902722617057
2023-05-05T12:41:21.150Z,18.87828699832776
2023-05-05T12:47:44.524Z,18.990741926212376
2023-05-05T12:54:06.662Z,19.10835205894649
2023-05-05T13:03:16.080Z,19.05279904368729
2023-05-05T13:13:15.917Z,18.82476288147993
2023-05-05T13:19:40.026Z,18.95137110681438
2023-05-05T13:29:02.214Z,19.222639919523413
2023-05-05T13:41:07.875Z,19.142717913879597
2023-05-05T13:47:31.352Z,19.047564799331106
2023-05-05T13:53:54.540Z,19.274365724289297
2023-05-05T14:07:48.365Z,18.843345004180602
2023-05-05T14:14:13.691Z,18.845442490593648
2023-05-05T14:20:36.624Z,18.703852032817725
2023-05-05T14:28:03.922Z,18.859611465301004
2023-05-05T14:34:30.420Z,18.92326766304348
2023-05-05T14:44:56.688Z,18.75713707148829
2023-05-05T14:51:20.303Z,18.78449453908863
2023-05-05T15:05:18.552Z,18.762846206103678
2023-05-05T15:11:40.803Z,18.796125104515053
2023-05-05T15:18:55.335Z,18.880037625418062
2023-05-05T15:25:17.947Z,18.892265233068564
2023-05-05T15:31:40.233Z,18.561691314799333
2023-05-05T15:38:02.799Z,18.484543530518394
2023-05-05T15:44:24.975Z,18.252650762959863
2023-05-05T15:50:47.155Z,17.949298442725755
2023-05-05T15:57:09.859Z,17.658709369774247
2023-05-05T16:08:05.947Z,17.45616638795987
2023-05-05T16:14:28.372Z,17.32497452445652
2023-05-05T16:22:12.890Z,17.220218436454847
2023-05-05T16:28:35.182Z,17.097756845735788
2023-05-05T16:34:57.715Z,16.91129285117057
2023-05-05T16:41:20.031Z,16.522210754598664
2023-05-05T16:47:39.323Z,16.068115071070235
2023-05-05T16:58:31.597Z,15.300689799331103
2023-05-05T17:04:50.641Z,15.066275606187292
2023-05-05T17:11:11.499Z,15.01675833507525
2023-05-05T17:17:31.587Z,15.002646843645486
2023-05-05T17:23:53.579Z,14.881452497909697
2023-05-05T17:30:14.723Z,14.78659137228261
2023-05-05T17:36:36.302Z,14.635855847617057
2023-05-05T17:42:57.905Z,14.633887698578596
2023-05-05T17:51:16.329Z,14.550361230142142
2023-05-05T17:57:41.769Z,14.575818483486621
2023-05-05T18:07:22.679Z,14.426289454431437
2023-05-05T18:13:43.105Z,14.460599132525083
2023-05-05T18:21:41.347Z,14.357930732650502
2023-05-05T18:28:00.389Z,14.196430157817726
2023-05-05T18:35:44.108Z,14.237003553511705
2023-05-05T18:44:56.016Z,14.184142454013378
2023-05-05T18:52:02.260Z,14.104596049331104
2023-05-05T18:58:21.684Z,14.011639710493311
2023-05-05T19:05:10.564Z,13.987277905518397
2023-05-05T19:11:30.288Z,14.013171509197328
2023-05-05T19:28:39.070Z,13.896326295986624
2023-05-05T19:42:18.814Z,13.74278976797659
2023-05-05T19:50:55.421Z,13.612877560618728
2023-05-05T19:57:14.834Z,13.526605612458194
2023-05-05T20:03:33.802Z,13.521399456521738
2023-05-05T20:09:53.002Z,13.290702079849499
2023-05-05T20:16:12.149Z,13.206409385451506
2023-05-05T20:27:35.973Z,13.149207645275919
2023-05-05T20:33:56.121Z,13.116486595944817
2023-05-05T20:40:15.121Z,13.049678616220737
2023-05-05T20:50:51.482Z,13.051732990175587
2023-05-05T21:04:24.110Z,12.951218253553513
2023-05-05T21:10:43.113Z,12.993096127717392
2023-05-05T21:18:12.257Z,13.020462087165553
2023-05-05T21:28:07.421Z,12.91716529055184
2023-05-05T21:34:26.590Z,12.945984662416388
2023-05-05T21:45:16.720Z,12.954248536789299
2023-05-05T22:00:17.048Z,12.939558946488296
2023-05-05T22:06:35.346Z,12.95358747909699
2023-05-05T22:14:43.153Z,12.97686494042642
2023-05-05T22:21:01.968Z,13.06341189381271
2023-05-05T22:27:20.299Z,13.050080345944817
2023-05-05T22:34:05.405Z,12.950056176839466
2023-05-05T22:40:42.206Z,13.018078490802676
2023-05-05T22:47:01.518Z,13.04428825250836
2023-05-05T22:53:21.869Z,13.046805105560201
2023-05-05T23:04:18.441Z,13.041384040551838
2023-05-05T23:10:37.936Z,13.010580842391304
2023-05-05T23:18:42.059Z,12.964937160326087
2023-05-05T23:34:48.199Z,12.910921169523412
2023-05-05T23:41:07.912Z,12.908323970526755
2023-05-05T23:47:29.890Z,12.867973322533443
2023-05-05T23:53:48.640Z,12.79510085702341
